Terminal Aerodrome Forecast
Issued by NWS St Louis, MO

Home | Current Version | Previous Version | Graphics & Text | Print | Product List | Glossary On
Versions: 1 2 3 4 5 6 7 8 9 10 11 12 13 14 15 16 17 18 19 20 21 22 23 24 25 26 27 28
000
FTUS43 KLSX 281400 AAA
TAFSTL
TAF AMD
KSTL 281405Z 2814/2918 34010KT P6SM SCT015
      TEMPO 2814/2816 BKN015
     FM281700 34012G18KT P6SM BKN050
     FM290200 01006KT P6SM SKC
     FM291500 30006KT P6SM SCT050=

USA.gov is the U.S. government's official web portal to all federal, state and local government web resources and services.